Terminal Aerodrome Forecast
Issued by NWS

Home | Current Version | Previous Version | Text Only | Print | Product List | Glossary On
Versions: 1 2 3 4 5 6 7 8 9 10 11 12 13 14 15 16 17 18 19 20 21 22 23 24
000
FTUS44 KLIX 240522
TAFHUM
TAF
KHUM 240522Z 2406/2506 VRB04KT P6SM VCSH BKN025
      TEMPO 2410/2413 2SM TSRA OVC020CB
     FM241500 21005KT P6SM BKN025 BKN045 PROB30 2418/2423 4SM TSRA
      OVC025CB
      AMD NOT SKED=

USA.gov is the U.S. government's official web portal to all federal, state and local government web resources and services.